Time;durP1;ratioP1;P1;durP2;ratioP2;P2;SDS_P1;SDS_P2;PMS_P1;PMS_P2;Temp;Humidity;BMP_temperature;BMP_pressure;BME280_temperature;BME280_humidity;BME280_pressure;Samples;Min_cycle;Max_cycle;Signal;HPM_P1;HPM_P2
2021/11/03 00:00:56;;;;;;;18.33;3.38;;;;;20.60;100290.00;;;;5092707;28;20048;-77
2021/11/03 00:03:27;;;;;;;18.77;3.05;;;;;20.60;100298.00;;;;5102766;28;20047;-78
2021/11/03 00:05:57;;;;;;;14.50;3.45;;;;;20.50;100306.00;;;;5092011;28;20075;-79
2021/11/03 00:08:31;;;;;;;18.58;3.53;;;;;20.40;100302.00;;;;5101085;28;20043;-79
2021/11/03 00:11:03;;;;;;;11.60;2.72;;;;;20.30;100293.00;;;;5102657;28;20036;-78
2021/11/03 00:13:33;;;;;;;22.00;3.58;;;;;20.40;100294.00;;;;5097950;28;21961;-78
2021/11/03 00:16:03;;;;;;;20.38;3.28;;;;;20.40;100309.00;;;;5102995;28;20032;-77
2021/11/03 00:18:33;;;;;;;20.77;3.47;;;;;20.50;100290.00;;;;5106827;28;20043;-79
2021/11/03 00:21:05;;;;;;;12.38;3.70;;;;;20.70;100305.00;;;;5099563;28;20088;-78
2021/11/03 00:23:35;;;;;;;19.75;4.20;;;;;20.80;100297.00;;;;5094491;28;20511;-78
2021/11/03 00:26:05;;;;;;;18.23;3.67;;;;;20.80;100287.00;;;;5096557;28;20055;-78
2021/11/03 00:28:35;;;;;;;29.30;4.70;;;;;20.80;100277.00;;;;5079292;28;20447;-77
2021/11/03 00:31:05;;;;;;;21.85;3.90;;;;;20.90;100290.00;;;;5091306;28;20134;-77
2021/11/03 00:33:35;;;;;;;26.45;3.88;;;;;20.90;100288.00;;;;5110181;28;20792;-77
2021/11/03 00:36:05;;;;;;;16.13;3.15;;;;;21.00;100284.00;;;;5091399;28;20554;-78
2021/11/03 00:38:35;;;;;;;15.52;3.00;;;;;21.00;100281.00;;;;5088967;28;20624;-77
2021/11/03 00:41:06;;;;;;;13.45;2.95;;;;;20.90;100302.00;;;;5081461;28;20108;-77
2021/11/03 00:43:37;;;;;;;19.23;3.75;;;;;20.80;100306.00;;;;5079810;28;20410;-77
2021/11/03 00:46:06;;;;;;;22.58;3.58;;;;;20.80;100305.00;;;;5106092;28;20126;-77
2021/11/03 00:48:37;;;;;;;26.38;4.00;;;;;20.70;100297.00;;;;5090872;28;20146;-77
2021/11/03 00:51:07;;;;;;;15.48;3.20;;;;;20.50;100307.00;;;;5090598;28;20048;-77
2021/11/03 00:53:37;;;;;;;15.93;3.13;;;;;20.30;100305.00;;;;5109269;28;20542;-78
2021/11/03 00:56:07;;;;;;;13.35;3.00;;;;;20.10;100309.00;;;;5108929;28;20509;-77
2021/11/03 00:58:37;;;;;;;14.88;2.92;;;;;20.00;100314.00;;;;5091082;28;20566;-76
2021/11/03 01:01:08;;;;;;;14.85;3.22;;;;;19.80;100311.00;;;;5083382;28;20122;-77
2021/11/03 01:03:38;;;;;;;19.55;4.03;;;;;19.80;100311.00;;;;5080249;28;20054;-76
2021/11/03 01:06:09;;;;;;;11.57;3.10;;;;;19.70;100308.00;;;;5088709;28;20528;-76
2021/11/03 01:08:39;;;;;;;17.35;3.00;;;;;19.60;100316.00;;;;5107269;28;20052;-76
2021/11/03 01:11:10;;;;;;;12.07;2.97;;;;;19.60;100297.00;;;;5107568;28;20055;-76
2021/11/03 01:14:00;;;;;;;14.48;3.58;;;;;19.50;100291.00;;;;5107031;28;20119;-76
2021/11/03 01:16:31;;;;;;;24.50;3.17;;;;;19.50;100295.00;;;;5107477;28;20058;-76
2021/11/03 01:19:02;;;;;;;30.33;4.30;;;;;19.50;100292.00;;;;5090533;28;20768;-76
2021/11/03 01:21:33;;;;;;;15.73;3.42;;;;;19.50;100289.00;;;;5090678;28;20059;-76
2021/11/03 01:24:03;;;;;;;23.40;3.47;;;;;19.50;100310.00;;;;5108916;28;20066;-76
2021/11/03 01:26:32;;;;;;;15.43;4.40;;;;;19.60;100303.00;;;;5090009;28;20056;-76
2021/11/03 01:29:05;;;;;;;12.13;3.05;;;;;19.60;100304.00;;;;5089019;28;20089;-76
2021/11/03 01:31:37;;;;;;;11.98;2.83;;;;;19.60;100304.00;;;;5090296;28;20047;-76
2021/11/03 01:34:07;;;;;;;11.32;3.53;;;;;19.50;100293.00;;;;5073429;28;20151;-76
2021/11/03 01:36:36;;;;;;;10.23;3.00;;;;;19.50;100289.00;;;;5090233;28;20403;-76
2021/11/03 01:39:07;;;;;;;13.27;3.15;;;;;19.40;100288.00;;;;5089950;28;20057;-76
2021/11/03 01:41:39;;;;;;;13.85;3.25;;;;;19.50;100284.00;;;;5089704;28;20395;-77
2021/11/03 01:44:13;;;;;;;;;;;;;19.50;100291.00;;;;5109379;28;20043;-76
2021/11/03 01:46:53;;;;;;;16.15;3.60;;;;;19.50;100285.00;;;;5124206;27;19965;-76
2021/11/03 01:49:30;;;;;;;15.73;3.05;;;;;19.50;100269.00;;;;5089903;28;20069;-76
2021/11/03 01:52:10;;;;;;;15.05;3.53;;;;;19.40;100266.00;;;;5089158;28;20055;-77
2021/11/03 01:54:50;;;;;;;13.50;3.22;;;;;19.40;100268.00;;;;5089674;28;20052;-77
2021/11/03 01:57:32;;;;;;;22.10;3.17;;;;;19.30;100265.00;;;;5089807;28;20055;-77
2021/11/03 02:00:22;;;;;;;17.88;3.42;;;;;19.30;100256.00;;;;5089305;28;20136;-78
2021/11/03 02:03:04;;;;;;;14.65;3.25;;;;;19.30;100263.00;;;;5073818;28;20043;-77
2021/11/03 02:05:40;;;;;;;21.02;3.63;;;;;19.30;100252.00;;;;5089916;28;20132;-76
2021/11/03 02:08:11;;;;;;;18.48;4.15;;;;;19.20;100263.00;;;;5090055;28;20534;-77
2021/11/03 02:10:40;;;;;;;17.42;3.60;;;;;19.20;100275.00;;;;5089012;28;20066;-77
2021/11/03 02:13:12;;;;;;;10.70;3.22;;;;;19.30;100280.00;;;;5089457;28;20051;-77
2021/11/03 02:15:44;;;;;;;14.18;3.33;;;;;19.30;100288.00;;;;5089362;28;20075;-77
2021/11/03 02:18:18;;;;;;;14.73;2.95;;;;;19.30;100290.00;;;;5107845;28;20078;-77
2021/11/03 02:20:53;;;;;;;13.88;3.53;;;;;19.30;100286.00;;;;5089408;28;20092;-77
2021/11/03 02:23:38;;;;;;;17.17;3.17;;;;;19.30;100292.00;;;;5089015;28;20048;-77
2021/11/03 02:26:20;;;;;;;17.90;3.35;;;;;19.20;100296.00;;;;5089023;28;20075;-77
2021/11/03 02:28:50;;;;;;;11.77;3.13;;;;;19.10;100289.00;;;;5089210;28;20415;-77
2021/11/03 02:31:48;;;;;;;10.20;3.47;;;;;19.10;100275.00;;;;5107657;28;20502;-77
2021/11/03 02:34:26;;;;;;;10.10;2.95;;;;;19.00;100271.00;;;;5089222;28;20048;-77
2021/11/03 02:36:56;;;;;;;13.85;3.75;;;;;19.00;100270.00;;;;5089492;28;20520;-78
2021/11/03 02:39:44;;;;;;;12.10;3.38;;;;;18.90;100260.00;;;;5088409;28;20048;-77
2021/11/03 02:42:15;;;;;;;14.23;4.13;;;;;18.90;100261.00;;;;5088364;28;20058;-77
2021/11/03 02:44:48;;;;;;;16.48;4.10;;;;;18.90;100254.00;;;;5106884;28;20055;-77
2021/11/03 02:47:18;;;;;;;18.60;3.75;;;;;18.80;100265.00;;;;5106994;28;20406;-77
2021/11/03 02:49:47;;;;;;;23.40;5.03;;;;;18.80;100261.00;;;;5089055;28;20044;-77
2021/11/03 02:52:21;;;;;;;20.08;4.25;;;;;18.80;100266.00;;;;5089095;28;20052;-77
2021/11/03 02:54:52;;;;;;;18.75;3.70;;;;;18.80;100251.00;;;;5088483;28;20541;-77
2021/11/03 02:57:23;;;;;;;14.25;3.58;;;;;18.80;100259.00;;;;5088948;28;20044;-77
2021/11/03 02:59:53;;;;;;;20.05;3.97;;;;;18.80;100253.00;;;;5072147;28;20067;-77
2021/11/03 03:02:22;;;;;;;14.52;3.95;;;;;18.80;100244.00;;;;5088627;28;20043;-77
2021/11/03 03:04:54;;;;;;;16.15;4.35;;;;;18.80;100250.00;;;;5107022;28;20044;-77
2021/11/03 03:07:26;;;;;;;14.15;4.32;;;;;18.80;100246.00;;;;5107108;28;20489;-77
2021/11/03 03:09:56;;;;;;;18.75;4.32;;;;;18.70;100229.00;;;;5088945;28;20055;-77
2021/11/03 03:12:29;;;;;;;15.23;3.65;;;;;18.70;100254.00;;;;5088980;28;20059;-77
2021/11/03 03:14:59;;;;;;;13.85;3.92;;;;;18.60;100235.00;;;;5106949;28;20114;-77
2021/11/03 03:17:31;;;;;;;13.00;4.05;;;;;18.60;100243.00;;;;5088276;28;20052;-77
2021/11/03 03:20:00;;;;;;;14.43;4.05;;;;;18.60;100223.00;;;;5088454;28;20055;-77
2021/11/03 03:22:30;;;;;;;15.60;4.15;;;;;18.60;100222.00;;;;5106522;28;20040;-77
2021/11/03 03:25:00;;;;;;;21.45;5.20;;;;;18.60;100225.00;;;;5088699;28;20062;-77
2021/11/03 03:27:30;;;;;;;13.17;4.27;;;;;18.60;100218.00;;;;5106930;28;20044;-77
2021/11/03 03:30:04;;;;;;;17.80;5.00;;;;;18.70;100214.00;;;;5088057;28;20047;-77
2021/11/03 03:32:34;;;;;;;18.83;4.03;;;;;18.70;100207.00;;;;5088726;28;20059;-77
2021/11/03 03:35:04;;;;;;;11.30;4.13;;;;;18.70;100203.00;;;;5106877;28;20042;-77
2021/11/03 03:37:35;;;;;;;12.10;4.53;;;;;18.80;100191.00;;;;5088877;28;20044;-77
2021/11/03 03:40:04;;;;;;;14.10;4.50;;;;;18.80;100196.00;;;;5088412;28;20051;-77
2021/11/03 03:42:38;;;;;;;15.85;4.07;;;;;18.90;100173.00;;;;5088202;28;20050;-77
2021/11/03 03:45:09;;;;;;;18.58;4.75;;;;;18.90;100182.00;;;;5088086;28;20044;-77
2021/11/03 03:47:39;;;;;;;19.20;4.75;;;;;19.00;100160.00;;;;5088087;28;20069;-77
2021/11/03 03:50:09;;;;;;;20.90;4.85;;;;;19.00;100159.00;;;;5106677;28;20071;-77
2021/11/03 03:52:40;;;;;;;10.52;4.05;;;;;18.90;100147.00;;;;5091025;28;20139;-77
2021/11/03 03:55:10;;;;;;;15.70;4.07;;;;;18.90;100149.00;;;;5091331;28;20047;-77
2021/11/03 03:57:39;;;;;;;12.07;4.17;;;;;18.80;100149.00;;;;5092186;28;20044;-77
2021/11/03 04:00:13;;;;;;;18.60;4.82;;;;;18.80;100141.00;;;;5092172;28;20815;-77
2021/11/03 04:02:47;;;;;;;15.02;4.50;;;;;18.70;100151.00;;;;5092126;28;20179;-77
2021/11/03 04:05:19;;;;;;;16.88;4.10;;;;;18.60;100142.00;;;;5091584;28;20079;-77
2021/11/03 04:07:49;;;;;;;14.77;4.25;;;;;18.60;100124.00;;;;5091787;28;20055;-77
2021/11/03 04:10:20;;;;;;;16.50;4.35;;;;;18.60;100118.00;;;;5091453;28;20082;-77
2021/11/03 04:12:52;;;;;;;14.68;4.07;;;;;18.50;100123.00;;;;5092385;28;20384;-77
2021/11/03 04:15:22;;;;;;;13.10;4.25;;;;;18.40;100120.00;;;;5110126;28;20134;-77
2021/11/03 04:17:51;;;;;;;11.88;3.92;;;;;18.50;100124.00;;;;5110015;28;20050;-77
2021/11/03 04:20:21;;;;;;;9.98;4.45;;;;;18.40;100119.00;;;;5091668;28;20050;-77
2021/11/03 04:22:51;;;;;;;10.25;3.92;;;;;18.40;100100.00;;;;5091969;28;20805;-77
2021/11/03 04:25:21;;;;;;;21.27;5.32;;;;;18.40;100105.00;;;;5091685;28;20036;-77
2021/11/03 04:27:54;;;;;;;16.13;4.57;;;;;18.40;100103.00;;;;5091109;28;20142;-77
2021/11/03 04:30:24;;;;;;;16.53;4.97;;;;;18.50;100114.00;;;;5109540;28;20051;-77
2021/11/03 04:32:55;;;;;;;;;;;;;18.50;100103.00;;;;5092140;28;20051;-77
2021/11/03 04:35:27;;;;;;;12.52;4.80;;;;;18.60;100114.00;;;;5125422;27;19934;-77
2021/11/03 04:37:57;;;;;;;15.02;4.32;;;;;18.60;100097.00;;;;5091613;28;20124;-77
2021/11/03 04:40:28;;;;;;;12.45;4.30;;;;;18.50;100087.00;;;;5091368;28;20085;-77
2021/11/03 04:42:59;;;;;;;13.57;4.18;;;;;18.50;100086.00;;;;5091049;28;20044;-77
2021/11/03 04:45:29;;;;;;;11.07;3.92;;;;;18.40;100065.00;;;;5090904;28;20051;-77
2021/11/03 04:47:59;;;;;;;11.90;3.97;;;;;18.40;100065.00;;;;5091213;28;20055;-77
2021/11/03 04:50:30;;;;;;;11.18;4.30;;;;;18.40;100070.00;;;;5090752;28;20430;-77
2021/11/03 04:53:02;;;;;;;13.82;4.45;;;;;18.30;100081.00;;;;5090305;28;20054;-77
2021/11/03 04:55:35;;;;;;;15.77;4.45;;;;;18.30;100061.00;;;;5074903;28;20055;-77
2021/11/03 04:58:05;;;;;;;16.73;4.57;;;;;18.40;100053.00;;;;5091176;28;20054;-77
2021/11/03 05:00:36;;;;;;;12.15;4.70;;;;;18.30;100047.00;;;;5090556;28;20553;-77
2021/11/03 05:03:07;;;;;;;15.30;4.80;;;;;18.30;100057.00;;;;5108777;28;20051;-77
2021/11/03 05:05:37;;;;;;;10.82;4.65;;;;;18.20;100059.00;;;;5109419;28;20094;-78
2021/11/03 05:08:10;;;;;;;12.38;4.68;;;;;18.20;100060.00;;;;5090568;28;20052;-77
2021/11/03 05:10:41;;;;;;;10.00;4.35;;;;;18.20;100044.00;;;;5090640;28;20079;-77
2021/11/03 05:13:10;;;;;;;15.05;4.18;;;;;18.20;100047.00;;;;5108845;28;20085;-77
2021/11/03 05:15:40;;;;;;;14.85;6.07;;;;;18.30;100050.00;;;;5090576;28;20047;-77
2021/11/03 05:18:10;;;;;;;16.73;4.95;;;;;18.30;100024.00;;;;5090256;28;20044;-77
2021/11/03 05:20:39;;;;;;;16.55;5.30;;;;;18.30;100043.00;;;;5090211;28;20869;-77
2021/11/03 05:23:09;;;;;;;15.82;6.38;;;;;18.30;100044.00;;;;5090566;28;20090;-77
2021/11/03 05:25:39;;;;;;;16.42;5.05;;;;;18.20;100031.00;;;;5108042;28;20757;-77
2021/11/03 05:28:09;;;;;;;15.27;4.80;;;;;18.30;100044.00;;;;5108811;28;20044;-77
2021/11/03 05:30:39;;;;;;;19.08;5.05;;;;;18.30;100031.00;;;;5109342;28;20525;-77
2021/11/03 05:33:09;;;;;;;13.50;5.75;;;;;18.30;100036.00;;;;5109093;28;20514;-77
2021/11/03 05:35:39;;;;;;;9.48;5.10;;;;;18.30;100023.00;;;;5090226;28;20044;-75
2021/11/03 05:38:09;;;;;;;14.18;5.13;;;;;18.30;100019.00;;;;5107982;28;21002;-76
2021/11/03 05:40:39;;;;;;;15.43;5.32;;;;;18.30;100028.00;;;;5107934;28;20089;-75
2021/11/03 05:43:08;;;;;;;8.98;4.90;;;;;18.20;100012.00;;;;5108268;28;20039;-75
2021/11/03 05:45:38;;;;;;;14.32;4.97;;;;;18.10;100025.00;;;;5108120;28;20051;-75
2021/11/03 05:48:07;;;;;;;10.38;4.35;;;;;18.10;100027.00;;;;5108271;28;20039;-77
2021/11/03 05:50:37;;;;;;;13.68;4.78;;;;;18.10;100031.00;;;;5108735;28;20632;-76
2021/11/03 05:53:07;;;;;;;16.17;4.95;;;;;18.20;100030.00;;;;5108508;28;20058;-76
2021/11/03 05:55:36;;;;;;;8.40;4.28;;;;;18.10;100017.00;;;;5108425;28;20612;-76
2021/11/03 05:58:06;;;;;;;13.02;4.95;;;;;18.10;100016.00;;;;5107487;28;20051;-76
2021/11/03 06:00:37;;;;;;;10.40;4.25;;;;;18.10;100024.00;;;;5108051;28;20044;-76
2021/11/03 06:03:07;;;;;;;18.38;5.50;;;;;18.00;100025.00;;;;5107586;28;20047;-76
2021/11/03 06:05:37;;;;;;;13.18;4.25;;;;;18.00;100027.00;;;;5107805;28;20051;-76
2021/11/03 06:08:08;;;;;;;10.10;4.22;;;;;17.90;100022.00;;;;5107490;28;20544;-76
2021/11/03 06:10:40;;;;;;;12.57;4.90;;;;;17.90;100020.00;;;;5107193;28;20077;-76
2021/11/03 06:13:12;;;;;;;13.45;4.93;;;;;17.80;100017.00;;;;5107794;28;20039;-76
2021/11/03 06:15:42;;;;;;;21.20;5.85;;;;;17.90;100021.00;;;;5107255;28;20108;-76
2021/11/03 06:18:12;;;;;;;10.82;5.05;;;;;17.80;100014.00;;;;5107631;28;20074;-76
2021/11/03 06:20:42;;;;;;;11.13;5.00;;;;;17.80;100016.00;;;;5107615;28;20047;-76
2021/11/03 06:23:11;;;;;;;14.00;4.78;;;;;17.80;100014.00;;;;5107505;28;20048;-76
2021/11/03 06:25:41;;;;;;;14.35;4.88;;;;;17.80;100014.00;;;;5107860;28;20123;-76
2021/11/03 06:28:11;;;;;;;17.27;5.28;;;;;17.80;100016.00;;;;5106990;28;20572;-76
2021/11/03 06:30:40;;;;;;;11.30;5.43;;;;;17.80;100018.00;;;;5089032;28;20414;-76
2021/11/03 06:33:10;;;;;;;12.57;5.63;;;;;17.80;100021.00;;;;5107225;28;20528;-76
2021/11/03 06:35:41;;;;;;;12.23;5.25;;;;;17.80;100010.00;;;;5107070;28;20541;-76
2021/11/03 06:38:13;;;;;;;11.30;4.78;;;;;17.80;100018.00;;;;5107887;28;20035;-76
2021/11/03 06:40:44;;;;;;;8.13;4.30;;;;;17.70;100011.00;;;;5107435;28;20414;-76
2021/11/03 06:43:14;;;;;;;12.05;4.75;;;;;17.70;100011.00;;;;5107445;28;20101;-76
2021/11/03 06:45:44;;;;;;;13.93;5.32;;;;;17.70;100014.00;;;;5107381;28;20062;-76
2021/11/03 06:48:14;;;;;;;8.05;5.00;;;;;17.70;100005.00;;;;5107117;28;20051;-76
2021/11/03 06:50:45;;;;;;;11.82;5.13;;;;;17.70;100009.00;;;;5107495;28;20051;-76
2021/11/03 06:53:16;;;;;;;14.23;5.43;;;;;17.70;100009.00;;;;5107165;28;20052;-76
2021/11/03 06:55:47;;;;;;;8.48;5.00;;;;;17.80;100002.00;;;;5106879;28;20043;-76
2021/11/03 06:58:19;;;;;;;14.98;5.22;;;;;17.80;100011.00;;;;5089538;28;20047;-77
2021/11/03 07:00:52;;;;;;;15.93;5.07;;;;;17.80;100003.00;;;;5108104;28;20044;-76
2021/11/03 07:03:23;;;;;;;12.63;5.25;;;;;17.80;99999.00;;;;5107005;28;20077;-76
2021/11/03 07:05:55;;;;;;;11.55;5.75;;;;;17.80;99999.00;;;;5107446;28;20074;-76
2021/11/03 07:08:28;;;;;;;10.20;5.35;;;;;17.90;99994.00;;;;5106663;28;20084;-76
2021/11/03 07:10:59;;;;;;;13.05;5.13;;;;;17.80;99993.00;;;;5106471;28;20136;-76
2021/11/03 07:13:30;;;;;;;9.18;5.07;;;;;17.90;100014.00;;;;5088958;28;20089;-76
2021/11/03 07:15:59;;;;;;;15.60;5.78;;;;;17.90;100013.00;;;;5106435;28;20088;-76
2021/11/03 07:18:29;;;;;;;10.80;4.93;;;;;17.90;100001.00;;;;5106762;28;20035;-76
2021/11/03 07:20:58;;;;;;;13.23;5.07;;;;;17.90;99999.00;;;;5106703;28;20418;-76
2021/11/03 07:23:28;;;;;;;10.13;4.80;;;;;17.90;100015.00;;;;5107145;28;20548;-76
2021/11/03 07:25:58;;;;;;;12.85;5.45;;;;;17.80;100006.00;;;;5090742;28;20558;-76
2021/11/03 07:28:27;;;;;;;10.75;4.85;;;;;17.80;100016.00;;;;5111115;28;20809;-76
2021/11/03 07:30:57;;;;;;;11.00;4.88;;;;;17.80;100016.00;;;;5110711;28;20410;-76
2021/11/03 07:33:26;;;;;;;13.52;5.50;;;;;17.80;100013.00;;;;5110999;28;20430;-76
2021/11/03 07:35:56;;;;;;;11.55;5.95;;;;;17.90;100012.00;;;;5091995;28;20561;-77
2021/11/03 07:38:26;;;;;;;14.98;5.32;;;;;17.80;100006.00;;;;5110862;28;20451;-76
2021/11/03 07:40:57;;;;;;;12.68;5.30;;;;;17.80;100011.00;;;;5110873;28;20044;-76
2021/11/03 07:43:29;;;;;;;14.13;4.75;;;;;17.70;99995.00;;;;5110646;28;20179;-76
2021/11/03 07:45:59;;;;;;;15.40;5.45;;;;;17.70;100010.00;;;;5110945;28;20050;-76
2021/11/03 07:48:29;;;;;;;11.25;4.63;;;;;17.70;100014.00;;;;5109692;28;20039;-76
2021/11/03 07:51:07;;;;;;;14.03;5.10;;;;;17.70;100007.00;;;;5110455;28;20089;-76
2021/11/03 07:53:38;;;;;;;12.15;4.85;;;;;17.70;100008.00;;;;5110556;28;20050;-76
2021/11/03 07:56:16;;;;;;;12.15;5.30;;;;;17.70;100013.00;;;;5110000;28;20047;-75
2021/11/03 07:58:47;;;;;;;13.77;5.05;;;;;17.60;100027.00;;;;5110378;28;20054;-76
2021/11/03 08:01:16;;;;;;;15.68;5.50;;;;;17.60;100036.00;;;;5110601;28;20468;-76
2021/11/03 08:03:46;;;;;;;9.57;5.38;;;;;17.70;100022.00;;;;5110158;28;20040;-76
2021/11/03 08:06:16;;;;;;;12.50;5.05;;;;;17.60;100013.00;;;;5110105;28;20072;-76
2021/11/03 08:08:57;;;;;;;13.52;5.07;;;;;17.60;100003.00;;;;5109945;28;20402;-77
2021/11/03 08:11:29;;;;;;;13.63;6.07;;;;;17.70;100024.00;;;;5109988;28;20039;-76
2021/11/03 08:13:59;;;;;;;11.68;5.45;;;;;17.60;100024.00;;;;5110597;28;20410;-76
2021/11/03 08:16:41;;;;;;;17.33;5.60;;;;;17.60;100013.00;;;;5110176;28;20040;-76
2021/11/03 08:19:11;;;;;;;12.18;5.03;;;;;17.60;100013.00;;;;5109839;28;20039;-76
2021/11/03 08:21:41;;;;;;;21.08;5.95;;;;;17.60;100010.00;;;;5109794;28;20064;-76
2021/11/03 08:24:11;;;;;;;17.17;5.95;;;;;17.60;100017.00;;;;5109796;28;20039;-77
2021/11/03 08:26:40;;;;;;;13.48;5.50;;;;;17.70;100012.00;;;;5109186;28;20425;-76
2021/11/03 08:29:12;;;;;;;16.45;5.68;;;;;17.70;100030.00;;;;5109970;28;20047;-76
2021/11/03 08:31:42;;;;;;;13.40;5.68;;;;;17.70;100029.00;;;;5109951;28;20052;-76
2021/11/03 08:34:14;;;;;;;14.30;5.22;;;;;17.70;100015.00;;;;5109457;28;20043;-76
2021/11/03 08:36:45;;;;;;;18.35;5.35;;;;;17.80;100007.00;;;;5109495;28;20035;-76
2021/11/03 08:39:15;;;;;;;18.45;6.00;;;;;17.80;100006.00;;;;5109335;28;20044;-76
2021/11/03 08:41:45;;;;;;;15.95;5.22;;;;;17.90;99987.00;;;;5109273;28;20463;-76
2021/11/03 08:44:15;;;;;;;11.23;5.10;;;;;18.00;100003.00;;;;5091245;28;20051;-76
2021/11/03 08:46:45;;;;;;;11.98;5.18;;;;;18.00;100005.00;;;;5108975;28;20540;-76
2021/11/03 08:49:15;;;;;;;20.73;5.90;;;;;18.20;100004.00;;;;5109602;28;20122;-76
2021/11/03 08:51:45;;;;;;;12.60;5.30;;;;;18.30;100005.00;;;;5110107;28;20913;-76
2021/11/03 08:54:17;;;;;;;15.77;6.20;;;;;18.40;100023.00;;;;5109610;28;20039;-78
2021/11/03 08:56:47;;;;;;;17.58;6.07;;;;;18.60;100027.00;;;;5109744;28;20052;-76
2021/11/03 08:59:17;;;;;;;14.13;5.28;;;;;18.70;100039.00;;;;5108402;28;20108;-76
2021/11/03 09:01:46;;;;;;;12.73;5.32;;;;;18.60;100041.00;;;;5091113;28;20100;-76
2021/11/03 09:04:16;;;;;;;17.08;4.80;;;;;18.60;100029.00;;;;5109135;28;20095;-77
2021/11/03 09:06:46;;;;;;;10.75;4.40;;;;;18.60;100045.00;;;;5109122;28;20096;-77
2021/11/03 09:09:16;;;;;;;9.57;4.78;;;;;18.50;100041.00;;;;5108564;28;20512;-76
2021/11/03 09:11:50;;;;;;;11.40;4.93;;;;;18.60;100042.00;;;;5108251;28;20039;-76
2021/11/03 09:14:21;;;;;;;12.57;4.93;;;;;18.70;100059.00;;;;5108966;28;20043;-76
2021/11/03 09:16:52;;;;;;;17.17;5.85;;;;;18.80;100069.00;;;;5109587;28;20501;-76
2021/11/03 09:19:21;;;;;;;9.50;4.83;;;;;18.80;100050.00;;;;5108531;28;20157;-76
2021/11/03 09:21:51;;;;;;;16.63;5.32;;;;;18.90;100056.00;;;;5108474;28;20058;-75
2021/11/03 09:24:20;;;;;;;20.85;5.93;;;;;19.10;100070.00;;;;5108528;28;20105;-76
2021/11/03 09:26:50;;;;;;;11.80;4.80;;;;;19.20;100080.00;;;;5108224;28;20073;-77
2021/11/03 09:29:20;;;;;;;9.98;5.00;;;;;19.20;100058.00;;;;5107297;28;20539;-76
2021/11/03 09:31:49;;;;;;;18.70;4.95;;;;;19.30;100046.00;;;;5106855;28;20047;-76
2021/11/03 09:34:19;;;;;;;16.08;4.82;;;;;19.30;100058.00;;;;5107744;28;20055;-76
2021/11/03 09:36:49;;;;;;;13.35;4.35;;;;;19.40;100048.00;;;;5107320;28;20086;-75
2021/11/03 09:39:19;;;;;;;16.30;4.10;;;;;19.50;100031.00;;;;5090245;28;20051;-76
2021/11/03 09:41:53;;;;;;;11.52;4.82;;;;;19.60;100058.00;;;;5107662;28;20044;-76
2021/11/03 09:44:28;;;;;;;14.13;4.88;;;;;19.70;100054.00;;;;5107224;28;20070;-76
2021/11/03 09:47:14;;;;;;;14.55;4.63;;;;;19.80;100056.00;;;;5107545;28;20044;-76
2021/11/03 09:49:51;;;;;;;10.55;3.67;;;;;19.80;100065.00;;;;5106479;28;20044;-76
2021/11/03 09:52:40;;;;;;;18.65;4.10;;;;;19.70;100073.00;;;;5107559;28;20067;-77
2021/11/03 09:55:29;;;;;;;23.45;4.35;;;;;19.70;100075.00;;;;5107857;28;20070;-76
2021/11/03 09:58:30;;;;;;;31.52;4.55;;;;;19.60;100082.00;;;;5107486;28;20040;-76
2021/11/03 10:01:22;;;;;;;18.77;4.65;;;;;19.60;100078.00;;;;5107481;28;20039;-76
2021/11/03 10:04:01;;;;;;;17.20;4.15;;;;;19.60;100075.00;;;;5106373;28;20084;-76
2021/11/03 10:06:45;;;;;;;29.88;5.55;;;;;19.60;100084.00;;;;5107849;28;20117;-76
2021/11/03 10:09:15;;;;;;;25.77;5.25;;;;;19.70;100070.00;;;;5107529;28;20055;-77
2021/11/03 10:11:48;;;;;;;29.05;4.82;;;;;19.70;100068.00;;;;5107743;28;20044;-77
2021/11/03 10:14:22;;;;;;;22.33;4.13;;;;;19.70;100061.00;;;;5107432;28;20454;-77
2021/11/03 10:16:56;;;;;;;18.88;4.78;;;;;19.60;100065.00;;;;5106972;28;20055;-77
2021/11/03 10:19:31;;;;;;;24.20;4.93;;;;;19.60;100070.00;;;;5107729;28;20492;-77
2021/11/03 10:22:47;;;;;;;19.20;4.65;;;;;19.70;100053.00;;;;5105989;28;20528;-77
2021/11/03 10:25:24;;;;;;;22.17;5.60;;;;;19.80;100058.00;;;;5105845;28;20051;-77
2021/11/03 10:27:59;;;;;;;15.57;5.05;;;;;19.90;100060.00;;;;5088827;28;20051;-77
2021/11/03 10:30:50;;;;;;;19.77;5.72;;;;;20.00;100075.00;;;;5106824;28;20039;-77
2021/11/03 10:33:28;;;;;;;18.08;5.90;;;;;20.10;100093.00;;;;5107184;28;20478;-76
2021/11/03 10:36:13;;;;;;;31.75;6.38;;;;;20.20;100085.00;;;;5107137;28;20097;-77
2021/11/03 10:38:57;;;;;;;43.97;7.25;;;;;20.30;100082.00;;;;5106756;28;20043;-77
2021/11/03 10:41:34;;;;;;;47.80;7.65;;;;;20.30;100088.00;;;;5107138;28;20047;-76
2021/11/03 10:44:07;;;;;;;41.05;7.45;;;;;20.40;100092.00;;;;5107086;28;20419;-78
2021/11/03 10:46:52;;;;;;;31.45;5.82;;;;;20.40;100082.00;;;;5107168;28;20047;-77
2021/11/03 10:49:34;;;;;;;30.92;5.80;;;;;20.50;100093.00;;;;5107407;28;20044;-77
2021/11/03 10:52:38;;;;;;;34.00;6.28;;;;;20.50;100093.00;;;;5106957;28;20669;-77
2021/11/03 10:55:23;;;;;;;27.35;5.30;;;;;20.60;100091.00;;;;5107197;28;20499;-78
2021/11/03 10:58:30;;;;;;;18.40;4.50;;;;;20.70;100097.00;;;;5107233;28;20044;-78
2021/11/03 11:01:06;;;;;;;21.75;5.57;;;;;20.70;100111.00;;;;5105776;28;20507;-75
2021/11/03 11:03:47;;;;;;;42.30;6.20;;;;;20.70;100099.00;;;;5106869;28;20114;-75
2021/11/03 11:06:39;;;;;;;38.27;6.53;;;;;20.80;100101.00;;;;5106922;28;20122;-78
2021/11/03 11:09:25;;;;;;;40.97;5.90;;;;;20.90;100085.00;;;;5106612;28;20309;-77
2021/11/03 11:11:58;;;;;;;42.67;4.75;;;;;20.90;100105.00;;;;5106392;28;20062;-77
2021/11/03 11:14:32;;;;;;;42.90;6.03;;;;;21.00;100091.00;;;;5106914;28;20469;-77
2021/11/03 11:17:17;;;;;;;48.42;6.78;;;;;21.10;100103.00;;;;5107602;28;20081;-77
2021/11/03 11:20:12;;;;;;;42.38;5.57;;;;;21.30;100103.00;;;;5106402;28;20036;-78
2021/11/03 11:22:41;;;;;;;;;;;;;21.60;100096.00;;;;5107362;28;20050;-77
2021/11/03 11:25:12;;;;;;;27.10;6.65;;;;;21.80;100095.00;;;;5106211;28;19926;-77
2021/11/03 11:27:53;;;;;;;19.17;6.78;;;;;22.10;100080.00;;;;5106601;28;20051;-76
2021/11/03 11:30:24;;;;;;;;;;;;;22.00;100100.00;;;;5107640;28;20051;-75
2021/11/03 11:33:15;;;;;;;19.35;5.40;;;;;21.60;100101.00;;;;5106514;28;19923;-77
2021/11/03 11:35:53;;;;;;;27.17;5.82;;;;;21.40;100103.00;;;;5078877;28;20086;-77
2021/11/03 11:38:44;;;;;;;18.15;4.53;;;;;21.50;100105.00;;;;5105935;28;20059;-77
2021/11/03 11:41:24;;;;;;;25.92;5.05;;;;;21.60;100095.00;;;;5106934;28;20046;-76
2021/11/03 11:44:17;;;;;;;13.82;4.75;;;;;21.70;100104.00;;;;5106473;28;20066;-76
2021/11/03 11:46:48;;;;;;;12.07;4.25;;;;;21.80;100098.00;;;;5106260;28;20070;-77
2021/11/03 11:49:36;;;;;;;18.45;4.97;;;;;22.00;100087.00;;;;5106641;28;20047;-76
2021/11/03 11:52:21;;;;;;;23.52;5.03;;;;;22.40;100082.00;;;;5105915;28;20051;-76
2021/11/03 11:55:13;;;;;;;19.40;4.93;;;;;22.70;100088.00;;;;5106053;28;20070;-76
2021/11/03 11:58:03;;;;;;;11.85;4.15;;;;;22.70;100091.00;;;;5106323;28;20051;-76
2021/11/03 12:00:35;;;;;;;16.77;5.38;;;;;22.60;100096.00;;;;5105531;28;20073;-76
2021/11/03 12:03:08;;;;;;;11.45;4.18;;;;;22.40;100118.00;;;;5106238;28;20047;-76
2021/11/03 12:05:56;;;;;;;21.35;5.00;;;;;22.20;100125.00;;;;5106821;28;20051;-76
2021/11/03 12:08:29;;;;;;;16.40;5.20;;;;;22.10;100115.00;;;;5106182;28;20044;-77
2021/11/03 12:11:02;;;;;;;20.52;4.80;;;;;22.10;100148.00;;;;5106410;28;20044;-77
2021/11/03 12:13:45;;;;;;;17.05;5.68;;;;;22.00;100146.00;;;;5109023;28;20036;-77
2021/11/03 12:16:33;;;;;;;15.70;4.97;;;;;22.00;100140.00;;;;5109938;28;20035;-78
2021/11/03 12:19:49;;;;;;;18.98;5.35;;;;;22.30;100141.00;;;;5109794;28;20076;-78
2021/11/03 12:22:39;;;;;;;12.43;4.85;;;;;22.60;100148.00;;;;5108105;28;20062;-78
2021/11/03 12:25:19;;;;;;;11.65;4.80;;;;;22.40;100159.00;;;;5109756;28;20093;-78
2021/11/03 12:28:19;;;;;;;15.68;6.35;;;;;22.30;100159.00;;;;5109342;28;20580;-78
2021/11/03 12:31:15;;;;;;;28.60;7.18;;;;;22.30;100159.00;;;;5073625;28;20130;-78
2021/11/03 12:34:05;;;;;;;37.30;8.50;;;;;22.30;100168.00;;;;5109615;28;20688;-78